createdAt,value
2022-12-26T00:01:25.198Z,28.75
2022-12-26T00:03:52.151Z,27.73
2022-12-26T00:06:20.916Z,26.98
2022-12-26T00:08:47.643Z,27.00
2022-12-26T00:11:15.475Z,26.90
2022-12-26T00:13:42.197Z,28.95
2022-12-26T00:16:09.111Z,23.73
2022-12-26T00:18:35.935Z,23.60
2022-12-26T00:21:02.669Z,27.65
2022-12-26T00:23:29.510Z,25.08
2022-12-26T00:25:56.127Z,29.08
2022-12-26T00:28:22.831Z,24.10
2022-12-26T00:30:49.496Z,22.52
2022-12-26T00:33:16.154Z,24.10
2022-12-26T00:35:42.787Z,24.00
2022-12-26T00:38:09.527Z,22.65
2022-12-26T00:40:36.134Z,22.38
2022-12-26T00:43:02.792Z,23.58
2022-12-26T00:45:29.459Z,21.27
2022-12-26T00:47:56.192Z,21.70
2022-12-26T00:50:23.168Z,20.77
2022-12-26T00:52:49.861Z,22.50
2022-12-26T00:55:16.609Z,21.50
2022-12-26T00:57:43.241Z,19.02
2022-12-26T01:00:10.465Z,20.92
2022-12-26T01:02:37.194Z,19.65
2022-12-26T01:05:05.422Z,22.00
2022-12-26T01:07:36.083Z,22.45
2022-12-26T01:10:22.799Z,22.63
2022-12-26T01:12:49.575Z,20.38
2022-12-26T01:15:16.458Z,20.60
2022-12-26T01:17:43.209Z,20.20
2022-12-26T01:20:10.447Z,23.45
2022-12-26T01:22:40.145Z,21.15
2022-12-26T01:25:07.497Z,21.90
2022-12-26T01:27:34.261Z,23.38
2022-12-26T01:30:00.954Z,24.10
2022-12-26T01:32:27.625Z,26.27
2022-12-26T01:34:54.265Z,19.98
2022-12-26T01:37:20.975Z,23.05
2022-12-26T01:39:47.615Z,23.80
2022-12-26T01:42:19.924Z,26.30
2022-12-26T01:45:04.606Z,23.52
2022-12-26T01:48:01.063Z,22.83
2022-12-26T01:50:57.223Z,24.00
2022-12-26T01:53:29.059Z,23.50
2022-12-26T01:56:03.778Z,19.88
2022-12-26T01:58:32.451Z,21.55
2022-12-26T02:03:41.675Z,19.27
2022-12-26T02:06:08.483Z,21.77
2022-12-26T02:08:35.407Z,19.30
2022-12-26T02:11:14.069Z,19.73
2022-12-26T02:13:41.093Z,19.63
2022-12-26T02:16:10.983Z,18.08
2022-12-26T02:18:37.633Z,19.30
2022-12-26T02:21:15.652Z,18.27
2022-12-26T02:24:07.956Z,17.30
2022-12-26T02:26:40.682Z,14.82
2022-12-26T02:29:18.069Z,17.55
2022-12-26T02:32:00.689Z,17.98
2022-12-26T02:34:49.956Z,18.25
2022-12-26T02:37:30.188Z,15.68
2022-12-26T02:40:23.885Z,17.25
2022-12-26T02:43:21.680Z,16.00
2022-12-26T02:45:54.491Z,18.17
2022-12-26T02:48:52.327Z,20.33
2022-12-26T02:51:31.293Z,22.17
2022-12-26T02:54:24.176Z,21.95
2022-12-26T02:56:52.531Z,23.13
2022-12-26T02:59:54.047Z,21.30
2022-12-26T03:02:24.146Z,20.63
2022-12-26T03:04:51.161Z,19.77
2022-12-26T03:07:32.124Z,17.90
2022-12-26T03:09:58.945Z,19.42
2022-12-26T03:12:42.173Z,15.90
2022-12-26T03:15:13.811Z,15.52
2022-12-26T03:17:46.780Z,15.00
2022-12-26T03:20:26.333Z,14.20
2022-12-26T03:23:11.148Z,11.40
2022-12-26T03:25:50.182Z,12.32
2022-12-26T03:28:16.835Z,10.88
2022-12-26T03:30:43.598Z,10.45
2022-12-26T03:33:10.474Z,8.65
2022-12-26T03:35:37.141Z,11.27
2022-12-26T03:38:11.845Z,10.45
2022-12-26T03:41:13.126Z,11.10
2022-12-26T03:43:53.664Z,10.63
2022-12-26T03:46:43.700Z,9.52
2022-12-26T03:49:21.840Z,10.98
2022-12-26T03:52:14.466Z,10.32
2022-12-26T03:54:54.397Z,10.38
2022-12-26T03:57:21.661Z,8.48
2022-12-26T03:59:59.893Z,9.27
2022-12-26T04:02:27.168Z,8.10
2022-12-26T04:04:54.665Z,7.57
2022-12-26T04:07:24.451Z,7.53
2022-12-26T04:12:24.249Z,6.28
2022-12-26T04:14:58.932Z,7.88
2022-12-26T04:17:28.377Z,8.07
2022-12-26T04:20:13.260Z,6.22
2022-12-26T04:22:48.722Z,7.35
2022-12-26T04:25:48.746Z,6.75
2022-12-26T04:28:11.738Z,5.97
2022-12-26T04:30:39.557Z,7.28
2022-12-26T04:33:11.136Z,7.35
2022-12-26T04:35:45.427Z,6.95
2022-12-26T04:38:13.281Z,6.70
2022-12-26T04:40:41.534Z,5.95
2022-12-26T04:43:49.977Z,6.53
2022-12-26T04:45:58.272Z,5.65
2022-12-26T04:48:24.925Z,6.35
2022-12-26T04:50:52.162Z,6.55
2022-12-26T04:53:19.387Z,6.45
2022-12-26T04:55:46.116Z,6.30
2022-12-26T04:58:12.884Z,6.38
2022-12-26T05:00:39.570Z,5.88
2022-12-26T05:03:07.043Z,5.35
2022-12-26T05:05:36.458Z,5.57
2022-12-26T05:08:03.164Z,5.72
2022-12-26T05:10:29.846Z,5.97
2022-12-26T05:12:56.543Z,5.30
2022-12-26T05:15:23.379Z,5.75
2022-12-26T05:17:50.037Z,6.05
2022-12-26T05:20:16.719Z,5.72
2022-12-26T05:22:44.163Z,5.28
2022-12-26T05:25:22.845Z,5.35
2022-12-26T05:27:49.860Z,5.10
2022-12-26T05:30:16.911Z,5.28
2022-12-26T05:32:43.587Z,5.45
2022-12-26T05:35:10.253Z,5.30
2022-12-26T05:37:36.875Z,5.47
2022-12-26T05:40:03.685Z,5.47
2022-12-26T05:42:30.371Z,4.72
2022-12-26T05:44:57.030Z,4.82
2022-12-26T05:47:23.774Z,6.38
2022-12-26T05:49:50.487Z,4.72
2022-12-26T05:52:17.136Z,5.53
2022-12-26T05:54:43.731Z,4.90
2022-12-26T05:57:10.354Z,4.70
2022-12-26T05:59:37.008Z,4.53
2022-12-26T06:02:03.731Z,3.97
2022-12-26T06:04:30.470Z,3.60
2022-12-26T06:06:57.527Z,4.35
2022-12-26T06:09:24.272Z,4.40
2022-12-26T06:11:51.006Z,4.65
2022-12-26T06:14:17.710Z,5.65
2022-12-26T06:16:46.420Z,5.15
2022-12-26T06:19:13.155Z,4.18
2022-12-26T06:21:39.815Z,4.60
2022-12-26T06:24:06.772Z,4.80
2022-12-26T06:26:33.519Z,4.95
2022-12-26T06:29:00.189Z,3.63
2022-12-26T06:31:26.979Z,3.60
2022-12-26T06:33:57.254Z,4.03
2022-12-26T06:36:24.890Z,3.88
2022-12-26T06:38:51.842Z,3.13
2022-12-26T06:41:21.779Z,2.97
2022-12-26T06:43:48.611Z,3.42
2022-12-26T06:46:17.475Z,4.20
2022-12-26T06:48:44.296Z,4.25
2022-12-26T06:51:16.520Z,3.08
2022-12-26T06:53:43.189Z,4.13
2022-12-26T06:56:10.768Z,3.90
2022-12-26T06:58:37.549Z,2.78
2022-12-26T07:01:08.240Z,2.92
2022-12-26T07:03:35.171Z,3.15
2022-12-26T07:06:06.263Z,3.70
2022-12-26T07:08:33.474Z,3.00
2022-12-26T07:11:00.179Z,2.67
2022-12-26T07:13:26.842Z,2.90
2022-12-26T07:15:53.546Z,3.85
2022-12-26T07:18:20.201Z,3.28
2022-12-26T07:20:46.951Z,2.42
2022-12-26T07:23:13.775Z,3.75
2022-12-26T07:25:40.769Z,3.65
2022-12-26T07:28:07.599Z,2.72
2022-12-26T07:30:34.409Z,3.92
2022-12-26T07:33:01.120Z,3.00
2022-12-26T07:35:27.864Z,3.20
2022-12-26T07:37:54.616Z,2.58
2022-12-26T07:40:21.349Z,2.63
2022-12-26T07:42:48.018Z,2.50
2022-12-26T07:45:15.110Z,2.72
2022-12-26T07:47:41.961Z,1.95
2022-12-26T07:50:12.463Z,2.72
2022-12-26T07:52:39.529Z,2.60
2022-12-26T07:55:08.454Z,2.03
2022-12-26T07:57:50.498Z,1.60
2022-12-26T08:00:18.161Z,2.00
2022-12-26T08:02:49.317Z,2.03
2022-12-26T08:05:16.919Z,2.30
2022-12-26T08:07:44.059Z,1.92
2022-12-26T08:10:15.189Z,1.38
2022-12-26T08:12:46.695Z,1.38
2022-12-26T08:15:20.567Z,1.73
2022-12-26T08:17:47.249Z,1.50
2022-12-26T08:20:14.184Z,2.22
2022-12-26T08:22:40.987Z,2.45
2022-12-26T08:28:08.380Z,1.60
2022-12-26T08:30:54.088Z,1.60
2022-12-26T08:33:21.120Z,1.98
2022-12-26T08:35:47.876Z,2.08
2022-12-26T08:38:14.580Z,1.35
2022-12-26T08:40:55.184Z,2.00
2022-12-26T08:46:17.547Z,1.45
2022-12-26T08:48:47.708Z,1.48
2022-12-26T08:51:24.884Z,1.80
2022-12-26T08:53:52.002Z,1.77
2022-12-26T08:56:22.654Z,1.80
2022-12-26T08:58:49.660Z,2.00
2022-12-26T09:01:21.255Z,1.50
2022-12-26T09:03:48.675Z,2.00
2022-12-26T09:06:15.467Z,1.63
2022-12-26T09:08:42.358Z,1.38
2022-12-26T09:11:14.221Z,1.17
2022-12-26T09:13:41.681Z,1.20
2022-12-26T09:16:18.190Z,1.58
2022-12-26T09:18:45.770Z,1.60
2022-12-26T09:21:13.267Z,2.90
2022-12-26T09:23:40.411Z,2.20
2022-12-26T09:26:18.862Z,2.35
2022-12-26T09:28:47.724Z,1.23
2022-12-26T09:31:18.395Z,1.77
2022-12-26T09:33:45.457Z,1.58
2022-12-26T09:36:15.266Z,1.98
2022-12-26T09:38:43.717Z,1.30
2022-12-26T09:41:24.262Z,1.40
2022-12-26T09:44:06.608Z,1.20
2022-12-26T09:47:18.043Z,1.73
2022-12-26T09:50:03.295Z,1.77
2022-12-26T09:52:44.137Z,1.80
2022-12-26T09:55:19.771Z,1.75
2022-12-26T09:57:51.191Z,1.88
2022-12-26T10:00:28.766Z,1.88
2022-12-26T10:03:16.310Z,2.40
2022-12-26T10:06:06.318Z,1.60
2022-12-26T10:08:42.671Z,2.05
2022-12-26T10:11:33.378Z,1.45
2022-12-26T10:14:21.598Z,1.73
2022-12-26T10:16:54.603Z,1.48
2022-12-26T10:19:33.737Z,1.77
2022-12-26T10:22:06.131Z,1.70
2022-12-26T10:24:36.975Z,1.30
2022-12-26T10:27:12.651Z,1.70
2022-12-26T10:29:44.964Z,1.98
2022-12-26T10:32:13.284Z,1.13
2022-12-26T10:34:41.907Z,1.58
2022-12-26T10:37:20.050Z,1.55
2022-12-26T10:40:01.798Z,1.73
2022-12-26T10:42:37.574Z,1.60
2022-12-26T10:45:31.592Z,1.60
2022-12-26T10:47:58.339Z,1.52
2022-12-26T10:50:32.295Z,1.10
2022-12-26T10:52:59.478Z,1.00
2022-12-26T10:55:31.876Z,1.13
2022-12-26T10:58:23.011Z,1.70
2022-12-26T11:00:49.715Z,1.63
2022-12-26T11:03:18.158Z,1.58
2022-12-26T11:06:07.404Z,1.13
2022-12-26T11:08:44.197Z,1.05
2022-12-26T11:11:34.529Z,1.33
2022-12-26T11:14:02.621Z,0.80
2022-12-26T11:16:34.981Z,1.30
2022-12-26T11:19:02.842Z,1.30
2022-12-26T11:21:30.288Z,0.90
2022-12-26T11:24:19.554Z,1.05
2022-12-26T11:26:46.372Z,1.40
2022-12-26T11:29:14.944Z,1.20
2022-12-26T11:32:03.712Z,1.25
2022-12-26T11:34:46.650Z,1.45
2022-12-26T11:37:30.307Z,1.60
2022-12-26T11:39:57.180Z,2.28
2022-12-26T11:42:25.266Z,1.80
2022-12-26T11:44:53.546Z,1.20
2022-12-26T11:47:24.358Z,1.33
2022-12-26T11:50:10.358Z,1.27
2022-12-26T11:52:44.623Z,0.93
2022-12-26T11:55:23.573Z,1.35
2022-12-26T11:58:10.908Z,0.82
2022-12-26T12:00:42.125Z,1.00
2022-12-26T12:03:16.587Z,1.00
2022-12-26T12:05:49.412Z,0.70
2022-12-26T12:08:22.103Z,0.98
2022-12-26T12:10:51.539Z,0.50
2022-12-26T12:13:18.193Z,0.50
2022-12-26T12:15:51.733Z,0.50
2022-12-26T12:18:31.114Z,0.52
2022-12-26T12:21:16.565Z,0.85
2022-12-26T12:24:10.590Z,0.50
2022-12-26T12:27:05.448Z,0.73
2022-12-26T12:29:59.709Z,0.40
2022-12-26T12:32:56.775Z,0.40
2022-12-26T12:36:02.679Z,0.47
2022-12-26T12:38:54.846Z,0.40
2022-12-26T12:41:57.927Z,0.70
2022-12-26T12:44:27.981Z,1.25
2022-12-26T12:46:55.065Z,0.60
2022-12-26T12:49:26.445Z,1.00
2022-12-26T12:52:16.164Z,0.95
2022-12-26T12:54:50.083Z,1.02
2022-12-26T12:57:32.719Z,0.63
2022-12-26T13:00:12.042Z,0.82
2022-12-26T13:02:56.835Z,0.70
2022-12-26T13:05:42.133Z,0.52
2022-12-26T13:08:16.995Z,0.88
2022-12-26T13:11:03.324Z,0.80
2022-12-26T13:13:39.439Z,0.80
2022-12-26T13:16:15.741Z,0.60
2022-12-26T13:19:11.844Z,0.90
2022-12-26T13:21:39.059Z,0.55
2022-12-26T13:24:13.854Z,1.17
2022-12-26T13:27:13.107Z,1.00
2022-12-26T13:29:41.978Z,0.55
2022-12-26T13:32:34.937Z,0.50
2022-12-26T13:35:02.102Z,0.80
2022-12-26T13:37:37.955Z,0.70
2022-12-26T13:40:13.369Z,0.73
2022-12-26T13:42:44.179Z,1.08
2022-12-26T13:45:42.856Z,1.05
2022-12-26T13:48:18.287Z,1.17
2022-12-26T13:50:56.075Z,0.73
2022-12-26T13:53:26.420Z,0.80
2022-12-26T13:58:58.577Z,0.35
2022-12-26T14:01:46.831Z,0.70
2022-12-26T14:04:36.908Z,1.42
2022-12-26T14:07:24.494Z,0.80
2022-12-26T14:09:58.798Z,0.40
2022-12-26T14:13:08.065Z,0.70
2022-12-26T14:15:39.309Z,0.93
2022-12-26T14:18:38.420Z,0.80
2022-12-26T14:21:10.831Z,0.90
2022-12-26T14:24:06.427Z,0.60
2022-12-26T14:27:06.962Z,1.30
2022-12-26T14:29:55.725Z,0.80
2022-12-26T14:32:47.198Z,1.10
2022-12-26T14:35:37.227Z,0.98
2022-12-26T14:38:30.450Z,0.70
2022-12-26T14:41:07.241Z,0.95
2022-12-26T14:43:36.332Z,0.75
2022-12-26T14:46:25.609Z,1.73
2022-12-26T14:48:54.776Z,1.10
2022-12-26T14:51:21.765Z,1.02
2022-12-26T14:54:17.345Z,0.70
2022-12-26T14:56:44.200Z,1.27
2022-12-26T14:59:19.622Z,1.30
2022-12-26T15:01:49.925Z,1.08
2022-12-26T15:04:41.688Z,0.60
2022-12-26T15:07:46.687Z,1.20
2022-12-26T15:10:33.384Z,0.70
2022-12-26T15:13:47.737Z,1.40
2022-12-26T15:16:36.329Z,0.75
2022-12-26T15:19:21.564Z,0.73
2022-12-26T15:22:00.818Z,1.52
2022-12-26T15:25:18.351Z,1.00
2022-12-26T15:28:15.932Z,1.55
2022-12-26T15:31:10.490Z,1.33
2022-12-26T15:33:51.367Z,0.90
2022-12-26T15:36:43.698Z,1.40
2022-12-26T15:39:48.146Z,1.23
2022-12-26T15:42:47.961Z,1.40
2022-12-26T15:45:39.911Z,3.05
2022-12-26T15:48:18.584Z,2.50
2022-12-26T15:51:23.659Z,2.30
2022-12-26T15:54:12.134Z,1.77
2022-12-26T15:59:51.305Z,1.92
2022-12-26T16:02:27.427Z,1.35
2022-12-26T16:05:17.208Z,2.75
2022-12-26T16:07:52.431Z,2.25
2022-12-26T16:10:25.860Z,3.47
2022-12-26T16:13:10.211Z,2.50
2022-12-26T16:15:48.048Z,1.98
2022-12-26T16:18:19.801Z,2.30
2022-12-26T16:20:46.767Z,3.63
2022-12-26T16:23:23.982Z,1.80
2022-12-26T16:25:55.891Z,2.22
2022-12-26T16:28:36.887Z,1.52
2022-12-26T16:31:04.096Z,2.03
2022-12-26T16:33:38.475Z,1.70
2022-12-26T16:36:05.234Z,1.77
2022-12-26T16:38:31.907Z,1.58
2022-12-26T16:40:58.638Z,1.63
2022-12-26T16:43:30.339Z,1.63
2022-12-26T16:45:59.540Z,1.73
2022-12-26T16:48:27.944Z,1.98
2022-12-26T16:50:59.921Z,2.25
2022-12-26T16:53:35.670Z,2.08
2022-12-26T16:56:31.314Z,1.80
2022-12-26T16:59:30.829Z,1.63
2022-12-26T17:02:17.821Z,2.90
2022-12-26T17:04:58.540Z,2.05
2022-12-26T17:07:26.360Z,1.42
2022-12-26T17:09:56.187Z,1.92
2022-12-26T17:12:32.755Z,1.60
2022-12-26T17:14:59.878Z,1.48
2022-12-26T17:17:32.370Z,1.90
2022-12-26T17:20:20.041Z,1.63
2022-12-26T17:22:47.909Z,2.78
2022-12-26T17:25:17.548Z,1.75
2022-12-26T17:27:45.078Z,1.95
2022-12-26T17:30:20.757Z,1.50
2022-12-26T17:32:47.652Z,2.08
2022-12-26T17:35:17.225Z,2.45
2022-12-26T17:37:44.144Z,2.92
2022-12-26T17:40:13.742Z,2.97
2022-12-26T17:42:54.371Z,2.85
2022-12-26T17:45:23.173Z,2.08
2022-12-26T17:47:53.637Z,2.28
2022-12-26T17:50:21.349Z,2.08
2022-12-26T17:52:48.216Z,1.65
2022-12-26T17:55:21.265Z,2.65
2022-12-26T17:57:48.099Z,2.20
2022-12-26T18:00:20.317Z,2.80
2022-12-26T18:02:47.225Z,3.42
2022-12-26T18:05:14.384Z,2.00
2022-12-26T18:07:41.149Z,2.00
2022-12-26T18:10:10.569Z,2.65
2022-12-26T18:12:37.338Z,2.60
2022-12-26T18:15:04.259Z,2.83
2022-12-26T18:17:32.070Z,2.65
2022-12-26T18:19:58.998Z,1.75
2022-12-26T18:22:26.460Z,2.67
2022-12-26T18:24:53.178Z,1.95
2022-12-26T18:27:30.691Z,2.58
2022-12-26T18:29:58.181Z,2.90
2022-12-26T18:32:32.382Z,2.05
2022-12-26T18:34:59.353Z,3.65
2022-12-26T18:37:29.792Z,3.22
2022-12-26T18:39:58.371Z,2.95
2022-12-26T18:42:28.743Z,3.17
2022-12-26T18:49:57.593Z,2.90
2022-12-26T18:52:25.131Z,2.13
2022-12-26T18:54:54.504Z,2.63
2022-12-26T18:57:23.791Z,2.38
2022-12-26T18:59:50.988Z,3.08
2022-12-26T19:02:22.506Z,3.28
2022-12-26T19:04:51.548Z,2.55
2022-12-26T19:07:19.451Z,2.53
2022-12-26T19:09:55.710Z,1.88
2022-12-26T19:14:53.430Z,2.05
2022-12-26T19:17:21.735Z,2.33
2022-12-26T19:19:50.164Z,2.45
2022-12-26T19:22:18.229Z,2.40
2022-12-26T19:24:51.047Z,2.13
2022-12-26T19:27:20.976Z,2.33
2022-12-26T19:29:48.401Z,2.05
2022-12-26T19:32:15.360Z,2.83
2022-12-26T19:34:42.524Z,1.10
2022-12-26T19:37:10.772Z,2.42
2022-12-26T19:39:37.730Z,2.70
2022-12-26T19:42:05.146Z,2.80
2022-12-26T19:44:33.843Z,2.78
2022-12-26T19:47:11.645Z,3.17
2022-12-26T19:49:41.187Z,3.03
2022-12-26T19:52:12.817Z,3.45
2022-12-26T19:54:42.972Z,2.92
2022-12-26T19:57:10.822Z,3.55
2022-12-26T19:59:38.436Z,2.92
2022-12-26T20:02:05.575Z,2.97
2022-12-26T20:04:34.366Z,2.78
2022-12-26T20:07:02.956Z,3.00
2022-12-26T20:09:36.920Z,3.80
2022-12-26T20:12:09.525Z,2.88
2022-12-26T20:14:38.980Z,3.63
2022-12-26T20:17:07.771Z,3.50
2022-12-26T20:19:35.699Z,4.00
2022-12-26T20:22:03.300Z,5.00
2022-12-26T20:24:31.213Z,4.75
2022-12-26T20:27:00.556Z,4.82
2022-12-26T20:29:28.280Z,4.30
2022-12-26T20:31:57.020Z,4.78
2022-12-26T20:34:26.644Z,4.18
2022-12-26T20:36:53.341Z,3.63
2022-12-26T20:39:20.073Z,3.65
2022-12-26T20:41:46.868Z,4.07
2022-12-26T20:44:14.506Z,3.38
2022-12-26T20:46:41.257Z,3.25
2022-12-26T20:49:08.489Z,3.35
2022-12-26T20:51:39.233Z,3.47
2022-12-26T20:54:06.930Z,3.60
2022-12-26T20:56:34.291Z,4.63
2022-12-26T20:59:00.970Z,3.55
2022-12-26T21:01:27.837Z,3.50
2022-12-26T21:03:55.375Z,3.40
2022-12-26T21:06:30.516Z,3.42
2022-12-26T21:08:57.280Z,3.95
2022-12-26T21:11:27.953Z,3.38
2022-12-26T21:13:56.618Z,4.30
2022-12-26T21:16:26.380Z,4.20
2022-12-26T21:18:53.238Z,5.20
2022-12-26T21:21:23.967Z,5.07
2022-12-26T21:23:54.363Z,4.13
2022-12-26T21:26:21.013Z,4.43
2022-12-26T21:28:47.622Z,3.97
2022-12-26T21:31:14.319Z,4.05
2022-12-26T21:33:44.754Z,4.50
2022-12-26T21:36:12.511Z,3.47
2022-12-26T21:38:39.398Z,3.97
2022-12-26T21:41:12.758Z,4.38
2022-12-26T21:43:39.729Z,4.60
2022-12-26T21:46:12.273Z,4.28
2022-12-26T21:48:52.647Z,4.53
2022-12-26T21:51:22.719Z,3.53
2022-12-26T21:56:30.759Z,4.30
2022-12-26T21:58:57.735Z,2.78
2022-12-26T22:01:26.226Z,3.72
2022-12-26T22:03:53.537Z,4.65
2022-12-26T22:06:20.672Z,4.35
2022-12-26T22:08:47.608Z,4.53
2022-12-26T22:11:17.367Z,4.97
2022-12-26T22:13:44.328Z,4.07
2022-12-26T22:16:11.707Z,4.55
2022-12-26T22:18:43.261Z,4.50
2022-12-26T22:21:14.466Z,4.75
2022-12-26T22:23:41.500Z,4.25
2022-12-26T22:26:11.349Z,3.95
2022-12-26T22:28:38.325Z,4.45
2022-12-26T22:31:05.149Z,4.30
2022-12-26T22:33:37.484Z,4.45
2022-12-26T22:36:08.533Z,4.38
2022-12-26T22:38:36.299Z,4.53
2022-12-26T22:41:03.212Z,4.50
2022-12-26T22:43:29.968Z,4.10
2022-12-26T22:45:56.876Z,4.28
2022-12-26T22:48:24.060Z,3.55
2022-12-26T22:50:54.988Z,4.90
2022-12-26T22:53:25.559Z,4.65
2022-12-26T22:55:56.081Z,4.57
2022-12-26T22:58:22.913Z,3.40
2022-12-26T23:00:49.720Z,3.63
2022-12-26T23:03:16.439Z,4.45
2022-12-26T23:05:43.337Z,4.70
2022-12-26T23:08:14.766Z,4.30
2022-12-26T23:10:42.002Z,4.60
2022-12-26T23:13:14.626Z,4.15
2022-12-26T23:15:54.294Z,4.53
2022-12-26T23:18:37.021Z,3.67
2022-12-26T23:21:08.249Z,4.47
2022-12-26T23:23:34.977Z,3.75
2022-12-26T23:26:01.791Z,4.55
2022-12-26T23:28:28.495Z,4.57
2022-12-26T23:30:55.218Z,3.85
2022-12-26T23:33:21.886Z,3.88
2022-12-26T23:35:48.489Z,4.28
2022-12-26T23:38:15.416Z,4.07
2022-12-26T23:40:42.081Z,3.13
2022-12-26T23:43:08.885Z,3.58
2022-12-26T23:45:35.510Z,3.90
2022-12-26T23:48:02.164Z,3.45
2022-12-26T23:50:28.773Z,4.15
2022-12-26T23:52:55.443Z,4.15
2022-12-26T23:55:22.097Z,3.70
2022-12-26T23:57:48.817Z,4.22
